McIntyre, GA

2:36 PM EDT on September 21, 2014 (GMT -0400)
South West Baldwin County | Change Station
CLOSE
Current Station
Personal Weather Station
Location: Milledgeville, GA
Elevation: 253 ft
Nearby Weather Stations

Elev 253 ft 32.98 °N, 83.12 °W | Updated 7 seconds ago

Clear
Clear
87.3 °F
Feels Like 93 °F
N
3.0
Wind Variable Wind from WSW
Gusts 9.0 mph

Today
High -- | Low -- °F
--% Chance of Precip.
Yesterday
High -- | Low -- °F
Precip. -- in
7:20 AM 7:30 PM
Waning Crescent, 6% visible
Pressure 29.98 in
Visibility 10.0 miles
Clouds Clear
Heat Index 93 °F
Dew Point 71 °F
Humidity 58%
Rainfall 0.00 in
Snow Depth Not available.
UV 9 out of 12
Pollen 7.90 out of 12
Air Quality Not available.
Flu Activity Not available.
METAR KMLJ 211815Z AUTO 25004KT 10SM CLR 30/19 A2998 RMK AO2

More Conditions Fewer Conditions

Pressure 29.98 in
Visibility 10.0 miles
Clouds Clear
Heat Index 93 °F
Dew Point 71 °F
Humidity 58%
Rainfall 0.00 in
Snow Depth Not available.
UV 9 out of 12
Pollen 7.90 out of 12
Air Quality Not available.
Flu Activity Not available.
METAR KMLJ 211815Z AUTO 25004KT 10SM CLR 30/19 A2998 RMK AO2

More Conditions Fewer Conditions

10-Day Weather Forecast

Almanac

Astronomy

Sep. 21, 2014 Rise Set
Actual Time 7:20 AM EDT 7:30 PM EDT
Civil Twilight 6:55 AM EDT 7:55 PM EDT
Nautical Twilight 6:26 AM EDT 8:24 PM EDT
Astronomical Twilight 5:57 AM EDT 8:53 PM EDT
Moon 4:59 AM EDT 6:01 PM EDT
Length of Visible Light 12h 59m
Length of Day
12h 10m
Tomorrow will be 2m 1s shorter.
Waning Crescent, 6% of the Moon is Illuminated
Today
Waning Crescent
Sep 24
New
Oct 1
First Quarter
Oct 8
Full
Oct 15
Last Quarter

Today's Extremes

State Highs State Lows

Community

WunderPhotos

Upload Photos

1,755,212 photos uploaded!

WunderBlogs® & News

Nearby

Snow Depth

Station Depth Elevation
No new snow has been reported.

Earthquake Activity

City Distance Mag. Time & Date
New Ellenton, South Carolina 95 miles 2.6 4:38 PM EDT
2014-09-19
Minimum magnitude displayed is 2.5.

Coastal Water Temperatures

Place Temperature
No Stations Reporting

Nearby Weather Stations